logo
Search for airport 
image banner adimage banner adimage banner ad
image banner ad

FAHL - Hluhluwe

Located in Hluhluwe, South Africa

ICAO - FAHL, IATA - HLW

Data provided by Airmate  

General information

Coordinates: S28°0'50" E32°16'30"
Elevation is 249 feet MSL.
Magnetic variation is -22.0° East
View others Airports in Kwazulu-Natal

Operational data

Special qualification required
Current time UTC:
Current local time:
Weather at : - ( 0 km )
METAR: PAMO 140422Z AUTO 26009KT 3SM -SN BR SCT005 OVC012 M02/M03 A3014 RMK AO2 P0000 FZRANO
View NOTAMs / SUP AIP / TFR affecting this airport [VIEW]
Communications frequencies: [VIEW]

Runways:

RWY identifierQFULength (ft)Width (ft)SurfaceLDA (ft)
0310°399397GRAS
21190°399397GRAS

Airport contact information

Address: Hluhluwe South Africa

Satellite view of FAHL